Time;durP1;ratioP1;P1;durP2;ratioP2;P2;SDS_P1;SDS_P2;PMS_P1;PMS_P2;Temp;Humidity;BMP_temperature;BMP_pressure;BME280_temperature;BME280_humidity;BME280_pressure;Samples;Min_cycle;Max_cycle;Signal;HPM_P1;HPM_P2
2022/06/09 00:01:53;;;;;;;2.20;0.70;;;24.50;47.00;;;;;;20831402;28;20080;-68
2022/06/09 00:11:55;;;;;;;1.92;0.55;;;24.30;47.40;;;;;;20830422;28;20153;-67
2022/06/09 00:21:56;;;;;;;;;;;24.20;47.60;;;;;;20830129;28;20144;-67
2022/06/09 00:31:58;;;;;;;0.70;0.60;;;24.10;47.90;;;;;;20829045;28;19921;-68
2022/06/09 00:42:01;;;;;;;1.80;0.40;;;24.10;48.10;;;;;;20827977;28;20053;-66
2022/06/09 00:52:05;;;;;;;1.52;0.40;;;23.90;48.40;;;;;;20827703;28;20513;-69
2022/06/09 01:02:10;;;;;;;0.45;0.38;;;23.90;48.50;;;;;;20826456;28;20057;-68
2022/06/09 01:12:42;;;;;;;0.73;0.47;;;23.70;48.90;;;;;;20827626;28;20065;-68
2022/06/09 01:23:03;;;;;;;0.45;0.40;;;23.70;48.90;;;;;;20826674;28;20076;-65
2022/06/09 01:33:25;;;;;;;1.63;0.40;;;23.70;49.00;;;;;;20826189;28;20076;-66
2022/06/09 01:43:34;;;;;;;0.57;0.40;;;23.70;49.00;;;;;;20827866;28;20049;-69
2022/06/09 01:54:16;;;;;;;2.90;0.60;;;23.60;49.10;;;;;;20826483;28;20489;-69
2022/06/09 02:04:37;;;;;;;1.55;0.60;;;23.60;49.10;;;;;;20824190;28;20116;-67
2022/06/09 02:14:47;;;;;;;0.95;0.50;;;23.50;49.00;;;;;;20836497;28;20588;-66
2022/06/09 02:24:49;;;;;;;0.55;0.45;;;23.60;48.40;;;;;;20839047;28;20053;-62
2022/06/09 02:34:52;;;;;;;2.25;0.50;;;23.50;48.40;;;;;;20836787;28;20041;-66
2022/06/09 02:44:56;;;;;;;0.80;0.50;;;23.40;48.60;;;;;;20837499;28;20061;-68
2022/06/09 02:54:58;;;;;;;0.70;0.50;;;23.40;48.50;;;;;;20836354;28;20052;-67
2022/06/09 03:05:00;;;;;;;1.10;0.60;;;23.40;48.20;;;;;;20836192;28;20159;-68
2022/06/09 03:15:07;;;;;;;1.60;0.80;;;23.50;48.30;;;;;;20836970;28;20072;-68
2022/06/09 03:25:28;;;;;;;1.35;0.68;;;23.50;48.50;;;;;;20833968;28;20049;-67
2022/06/09 03:35:50;;;;;;;1.25;0.70;;;23.50;48.60;;;;;;20834418;28;20108;-69
2022/06/09 03:46:10;;;;;;;1.63;0.73;;;23.50;48.70;;;;;;20832735;28;20049;-69
2022/06/09 03:56:21;;;;;;;9.75;7.45;;;23.50;48.50;;;;;;20831135;28;20486;-68
2022/06/09 04:06:30;;;;;;;2.35;0.60;;;23.50;48.60;;;;;;20831057;28;20512;-66
2022/06/09 04:16:36;;;;;;;1.88;0.80;;;23.30;48.20;;;;;;20830555;28;20404;-69
2022/06/09 04:26:40;;;;;;;2.78;0.60;;;23.40;47.90;;;;;;20830760;28;20425;-64
2022/06/09 04:36:42;;;;;;;4.30;0.70;;;23.20;47.90;;;;;;20829318;28;20046;-68
2022/06/09 04:46:43;;;;;;;;;;;23.10;48.10;;;;;;20829295;28;20049;-67
2022/06/09 04:56:45;;;;;;;3.70;0.95;;;22.90;48.80;;;;;;20828151;28;20293;-69
2022/06/09 05:06:47;;;;;;;2.83;1.08;;;22.90;49.60;;;;;;20828078;28;20068;-69
2022/06/09 05:16:49;;;;;;;3.33;1.30;;;22.70;50.40;;;;;;20827802;28;20045;-68
2022/06/09 05:26:50;;;;;;;5.80;1.80;;;22.70;51.00;;;;;;20826568;28;20057;-69
2022/06/09 05:36:52;;;;;;;5.93;2.15;;;22.70;51.40;;;;;;20826444;28;20128;-69
2022/06/09 05:46:54;;;;;;;3.67;2.20;;;22.70;52.00;;;;;;20834450;28;20053;-68
2022/06/09 05:56:57;;;;;;;4.73;2.53;;;22.60;52.40;;;;;;20839786;28;20046;-68
2022/06/09 06:06:59;;;;;;;4.70;2.38;;;22.50;52.90;;;;;;20838923;28;20507;-67
2022/06/09 06:17:01;;;;;;;;;;;22.40;53.10;;;;;;20838260;28;20131;-71
2022/06/09 06:27:03;;;;;;;5.22;2.80;;;22.30;53.30;;;;;;20837082;28;19921;-68
2022/06/09 06:37:05;;;;;;;6.10;2.90;;;22.50;53.20;;;;;;20837379;28;20080;-68
2022/06/09 06:47:07;;;;;;;4.10;2.90;;;22.60;53.20;;;;;;20836963;28;20049;-68
2022/06/09 06:57:09;;;;;;;4.63;2.57;;;22.70;53.10;;;;;;20835738;28;20045;-68
2022/06/09 07:07:11;;;;;;;6.97;2.27;;;23.30;51.80;;;;;;20835143;28;20468;-68
2022/06/09 07:17:12;;;;;;;3.60;2.72;;;24.00;50.20;;;;;;20835962;28;20481;-68
2022/06/09 07:27:14;;;;;;;5.57;2.30;;;24.70;48.60;;;;;;20834480;28;20053;-66
2022/06/09 07:37:16;;;;;;;3.55;2.25;;;25.00;47.40;;;;;;20958118;28;20113;-64
2022/06/09 07:47:18;;;;;;;7.10;2.67;;;25.20;46.70;;;;;;20997667;28;20117;-69
2022/06/09 07:57:20;;;;;;;4.50;2.30;;;25.60;45.80;;;;;;20997229;28;20051;-67
2022/06/09 08:07:22;;;;;;;5.43;2.03;;;26.00;45.10;;;;;;20995749;28;20060;-66
2022/06/09 08:17:24;;;;;;;3.00;1.90;;;26.20;44.80;;;;;;20995892;28;20304;-69
2022/06/09 08:27:25;;;;;;;5.72;2.53;;;26.30;44.20;;;;;;20995025;28;20048;-68
2022/06/09 08:37:27;;;;;;;4.95;2.00;;;26.40;43.80;;;;;;20995242;28;20048;-64
2022/06/09 08:47:31;;;;;;;;;;;26.60;43.20;;;;;;20994910;28;20540;-68
2022/06/09 08:57:35;;;;;;;2.00;1.50;;;;;;;;;;20993789;28;19920;-65
2022/06/09 09:07:38;;;;;;;4.15;1.80;;;;;;;;;;20993529;28;20052;-68
2022/06/09 09:17:43;;;;;;;2.70;1.65;;;;;;;;;;20995453;28;20417;-66
2022/06/09 09:27:53;;;;;;;3.28;2.00;;;;;;;;;;21009489;28;20044;-66
2022/06/09 09:37:56;;;;;;;3.27;1.53;;;;;;;;;;21008588;28;20055;-65
2022/06/09 09:48:00;;;;;;;3.50;1.38;;;;;;;;;;21008242;28;20044;-62
2022/06/09 09:58:21;;;;;;;5.57;1.75;;;;;;;;;;21005432;28;20550;-66
2022/06/09 10:08:39;;;;;;;4.75;1.60;;;;;;;;;;21006691;28;20056;-62
2022/06/09 10:18:44;;;;;;;3.53;1.45;;;;;;;;;;21004852;28;20061;-63
2022/06/09 10:29:10;;;;;;;3.35;1.80;;;28.40;37.40;;;;;;21002646;28;20087;-67
2022/06/09 10:39:37;;;;;;;4.82;1.77;;;28.40;37.60;;;;;;21001804;28;20491;-63
2022/06/09 11:00:16;;;;;;;2.63;1.70;;;28.60;36.40;;;;;;21000964;28;20053;-66
2022/06/09 11:10:44;;;;;;;3.42;1.25;;;28.70;35.80;;;;;;21001808;28;20048;-65
2022/06/09 11:21:15;;;;;;;3.53;1.30;;;28.70;35.20;;;;;;20996662;28;20053;-67
2022/06/09 11:31:35;;;;;;;2.35;1.00;;;28.90;34.90;;;;;;20941681;28;20064;-56
2022/06/09 11:42:04;;;;;;;1.63;1.00;;;28.70;33.80;;;;;;20916526;28;20085;-68
2022/06/09 11:52:10;;;;;;;3.42;1.00;;;28.80;34.60;;;;;;20914715;28;20331;-67
2022/06/09 12:02:45;;;;;;;2.10;0.80;;;29.10;33.70;;;;;;20915975;28;20144;-67
2022/06/09 12:13:06;;;;;;;5.15;3.42;;;29.20;33.30;;;;;;20915547;28;20469;-67
2022/06/09 12:23:08;;;;;;;4.18;1.15;;;29.10;33.80;;;;;;20914763;28;20519;-61
2022/06/09 12:33:29;;;;;;;4.32;1.00;;;29.40;32.80;;;;;;20914668;28;20537;-64
2022/06/09 12:43:42;;;;;;;8.85;6.05;;;29.70;32.50;;;;;;20912677;28;20049;-65
2022/06/09 12:53:56;;;;;;;6.63;1.00;;;29.70;32.30;;;;;;20911600;28;20073;-63
2022/06/09 13:04:04;;;;;;;3.45;0.95;;;29.70;32.70;;;;;;20911095;28;20060;-63
2022/06/09 13:14:05;;;;;;;1.52;0.70;;;29.90;32.50;;;;;;20910702;28;20049;-65
2022/06/09 13:24:25;;;;;;;2.38;0.90;;;30.00;32.30;;;;;;20909318;28;20136;-62
2022/06/09 13:34:34;;;;;;;2.67;0.87;;;30.10;31.80;;;;;;20911126;28;20504;-66
2022/06/09 13:44:44;;;;;;;3.15;0.80;;;30.20;31.70;;;;;;20910326;28;20486;-65
2022/06/09 13:54:51;;;;;;;1.15;0.60;;;30.40;31.00;;;;;;20909451;28;20049;-66
2022/06/09 14:04:54;;;;;;;3.55;1.35;;;30.60;30.20;;;;;;20912406;28;20056;-66
2022/06/09 14:14:55;;;;;;;2.88;1.02;;;30.90;30.00;;;;;;20924268;28;20056;-65
2022/06/09 14:24:57;;;;;;;3.90;1.98;;;31.10;29.80;;;;;;20923488;28;20056;-66
2022/06/09 14:35:00;;;;;;;0.82;0.57;;;31.30;29.30;;;;;;20923309;28;20136;-66
2022/06/09 14:45:01;;;;;;;2.30;0.70;;;31.40;28.60;;;;;;20921408;28;20550;-65
2022/06/09 14:55:04;;;;;;;1.38;0.68;;;31.50;28.60;;;;;;20912457;28;20140;-65
2022/06/09 15:05:06;;;;;;;3.08;0.60;;;31.60;28.40;;;;;;20853017;28;20116;-66
2022/06/09 15:15:12;;;;;;;2.20;0.90;;;31.50;28.00;;;;;;20837875;28;20406;-64
2022/06/09 15:25:14;;;;;;;2.00;0.90;;;31.60;28.50;;;;;;20835948;28;20068;-65
2022/06/09 15:35:16;;;;;;;1.85;0.80;;;31.70;28.50;;;;;;20835784;28;20049;-66
2022/06/09 15:45:18;;;;;;;2.55;0.90;;;31.80;28.20;;;;;;20835569;28;20060;-56
2022/06/09 15:55:21;;;;;;;1.85;0.80;;;31.90;28.50;;;;;;20865686;28;20405;-56
2022/06/09 16:05:23;;;;;;;2.28;1.55;;;32.00;28.00;;;;;;20870510;28;20485;-56
2022/06/09 16:15:26;;;;;;;2.80;1.10;;;31.80;28.40;;;;;;20870954;28;20128;-60
2022/06/09 16:25:28;;;;;;;1.42;0.85;;;32.00;28.10;;;;;;20876067;28;20067;-63
2022/06/09 16:35:31;;;;;;;3.10;1.35;;;31.90;28.40;;;;;;20845680;28;20465;-62
2022/06/09 16:45:32;;;;;;;1.00;0.80;;;31.90;27.80;;;;;;20831060;28;20053;-62
2022/06/09 16:55:34;;;;;;;1.92;0.80;;;32.00;27.70;;;;;;20830342;28;20354;-62
2022/06/09 17:05:57;;;;;;;1.52;0.63;;;32.10;27.60;;;;;;20828940;28;20119;-63
2022/06/09 17:16:00;;;;;;;5.28;1.35;;;32.20;27.20;;;;;;20829995;28;20494;-63
2022/06/09 17:26:03;;;;;;;3.30;1.05;;;32.20;26.60;;;;;;20828665;28;20057;-63
2022/06/09 17:36:06;;;;;;;2.42;0.80;;;32.10;26.70;;;;;;20829109;28;20111;-59
2022/06/09 17:46:09;;;;;;;2.15;1.17;;;32.20;26.80;;;;;;20842394;28;20045;-62
2022/06/09 17:56:10;;;;;;;2.85;1.20;;;32.10;26.90;;;;;;20843165;28;20045;-61
2022/06/09 18:06:12;;;;;;;1.73;1.23;;;32.20;26.90;;;;;;20842566;28;20112;-63
2022/06/09 18:16:15;;;;;;;2.33;0.98;;;32.10;27.10;;;;;;20874870;28;20378;-62
2022/06/09 18:26:19;;;;;;;4.20;1.30;;;32.00;26.90;;;;;;20842170;28;20405;-63
2022/06/09 18:36:21;;;;;;;1.30;0.90;;;32.10;26.40;;;;;;20840921;28;20050;-63
2022/06/09 18:46:23;;;;;;;2.50;0.95;;;31.90;26.40;;;;;;20839881;28;20485;-63
2022/06/09 18:56:25;;;;;;;2.22;0.90;;;31.80;25.80;;;;;;20838141;28;20053;-61
2022/06/09 19:06:27;;;;;;;2.92;0.80;;;31.80;25.90;;;;;;20837784;28;20061;-61
2022/06/09 19:16:29;;;;;;;2.00;0.60;;;31.70;25.60;;;;;;20837009;28;20413;-61
2022/06/09 19:26:30;;;;;;;3.70;1.15;;;31.60;25.10;;;;;;20836961;28;20057;-61
2022/06/09 19:36:32;;;;;;;2.70;1.65;;;31.50;25.30;;;;;;20836122;28;20053;-61
2022/06/09 19:46:36;;;;;;;4.05;1.70;;;31.20;25.10;;;;;;20834788;28;20056;-63
2022/06/09 19:56:39;;;;;;;2.05;1.30;;;31.00;25.30;;;;;;20834197;28;20049;-63
2022/06/09 20:06:41;;;;;;;2.85;1.38;;;30.90;25.30;;;;;;20831987;28;20165;-61
2022/06/09 20:16:42;;;;;;;1.42;1.05;;;30.80;25.30;;;;;;20832109;28;20045;-61
2022/06/09 20:26:44;;;;;;;3.75;1.55;;;30.60;25.90;;;;;;20842192;28;20454;-56
2022/06/09 20:36:46;;;;;;;4.32;1.70;;;30.50;26.30;;;;;;20914245;28;20126;-60
2022/06/09 20:46:48;;;;;;;2.13;1.00;;;30.20;26.70;;;;;;20912602;28;20476;-59
2022/06/09 20:56:51;;;;;;;2.50;0.70;;;30.20;27.50;;;;;;20911745;28;20103;-67
2022/06/09 21:06:53;;;;;;;1.58;0.70;;;30.00;28.40;;;;;;20912388;28;20065;-60
2022/06/09 21:27:17;;;;;;;2.10;0.90;;;29.60;29.20;;;;;;20928950;28;20139;-60
2022/06/09 21:37:22;;;;;;;2.67;1.00;;;29.30;29.70;;;;;;20928324;28;20421;-60
2022/06/09 21:47:23;;;;;;;1.52;0.90;;;29.20;29.80;;;;;;20926946;28;20049;-60
2022/06/09 21:57:26;;;;;;;3.90;0.82;;;29.10;29.90;;;;;;20925893;28;20056;-59
2022/06/09 22:07:27;;;;;;;3.00;0.85;;;28.70;30.50;;;;;;20925240;28;20041;-61
2022/06/09 22:17:30;;;;;;;3.38;1.10;;;28.60;30.30;;;;;;20924835;28;20049;-58
2022/06/09 22:27:33;;;;;;;3.75;1.05;;;28.30;30.60;;;;;;20922758;28;20114;-57
2022/06/09 22:37:37;;;;;;;2.58;0.80;;;28.10;30.70;;;;;;20923620;28;20122;-66
2022/06/09 22:47:39;;;;;;;4.15;1.00;;;27.90;30.80;;;;;;20922057;28;20045;-66
2022/06/09 22:57:41;;;;;;;1.75;0.93;;;27.70;31.60;;;;;;20921483;28;20530;-67
2022/06/09 23:07:43;;;;;;;3.47;1.20;;;27.40;32.40;;;;;;20920693;28;20420;-58
2022/06/09 23:17:44;;;;;;;3.63;1.65;;;27.20;32.70;;;;;;20919872;28;20049;-64
2022/06/09 23:27:47;;;;;;;1.40;0.98;;;27.10;33.10;;;;;;20919055;28;20056;-68
2022/06/09 23:37:52;;;;;;;2.13;1.50;;;26.70;33.60;;;;;;20919231;28;20052;-69
2022/06/09 23:47:53;;;;;;;2.42;1.10;;;26.60;34.40;;;;;;20918456;28;20509;-67
2022/06/09 23:57:55;;;;;;;1.95;1.13;;;26.40;34.80;;;;;;20916329;28;20045;-61
